createdAt,value
2022-10-22T00:02:21.892Z,98521.61
2022-10-22T00:04:54.023Z,98524.85
2022-10-22T00:07:25.747Z,98526.30
2022-10-22T00:09:57.145Z,98523.59
2022-10-22T00:12:34.235Z,98510.58
2022-10-22T00:15:07.158Z,98520.73
2022-10-22T00:17:39.540Z,98525.53
2022-10-22T00:20:13.518Z,98519.70
2022-10-22T00:22:45.061Z,98514.33
2022-10-22T00:25:20.317Z,98512.06
2022-10-22T00:27:51.789Z,98515.55
2022-10-22T00:30:23.402Z,98517.73
2022-10-22T00:32:54.860Z,98516.11
2022-10-22T00:35:26.849Z,98524.02
2022-10-22T00:37:58.296Z,98523.37
2022-10-22T00:40:29.790Z,98515.69
2022-10-22T00:43:01.265Z,98517.70
2022-10-22T00:45:33.237Z,98513.68
2022-10-22T00:48:10.395Z,98514.52
2022-10-22T00:50:47.442Z,98509.90
2022-10-22T00:53:21.382Z,98506.14
2022-10-22T00:55:53.186Z,98500.03
2022-10-22T00:58:28.667Z,98498.09
2022-10-22T01:01:00.949Z,98491.20
2022-10-22T01:03:34.157Z,98489.80
2022-10-22T01:06:07.152Z,98493.73
2022-10-22T01:08:52.011Z,98501.73
2022-10-22T01:11:30.417Z,98506.77
2022-10-22T01:14:14.414Z,98505.60
2022-10-22T01:16:49.376Z,98504.36
2022-10-22T01:19:44.362Z,98501.91
2022-10-22T01:22:21.905Z,98494.61
2022-10-22T01:25:06.472Z,98494.27
2022-10-22T01:27:54.960Z,98496.84
2022-10-22T01:30:27.958Z,98496.85
2022-10-22T01:33:04.731Z,98494.11
2022-10-22T01:35:42.964Z,98485.14
2022-10-22T01:38:20.214Z,98483.28
2022-10-22T01:40:54.627Z,98482.03
2022-10-22T01:43:26.459Z,98478.98
2022-10-22T01:46:03.217Z,98474.60
2022-10-22T01:48:45.530Z,98473.75
2022-10-22T01:51:39.958Z,98471.52
2022-10-22T01:54:23.964Z,98471.55
2022-10-22T01:56:59.468Z,98472.88
2022-10-22T01:59:44.753Z,98472.21
2022-10-22T02:02:30.738Z,98470.91
2022-10-22T02:05:06.633Z,98471.70
2022-10-22T02:07:43.847Z,98475.96
2022-10-22T02:10:18.859Z,98477.71
2022-10-22T02:12:54.823Z,98474.60
2022-10-22T02:15:28.677Z,98473.63
2022-10-22T02:18:01.441Z,98469.27
2022-10-22T02:20:36.458Z,98468.77
2022-10-22T02:23:09.954Z,98472.89
2022-10-22T02:25:45.884Z,98471.31
2022-10-22T02:28:25.771Z,98463.59
2022-10-22T02:31:10.420Z,98464.10
2022-10-22T02:33:46.804Z,98470.96
2022-10-22T02:36:20.184Z,98471.05
2022-10-22T02:38:53.683Z,98460.15
2022-10-22T02:41:25.465Z,98456.13
2022-10-22T02:43:58.107Z,98452.51
2022-10-22T02:46:29.687Z,98459.02
2022-10-22T02:49:01.185Z,98465.57
2022-10-22T02:51:32.610Z,98466.54
2022-10-22T02:54:04.240Z,98469.92
2022-10-22T02:56:35.702Z,98471.77
2022-10-22T02:59:07.251Z,98477.83
2022-10-22T03:01:38.730Z,98483.35
2022-10-22T03:04:10.317Z,98487.40
2022-10-22T03:06:43.952Z,98493.79
2022-10-22T03:09:18.153Z,98497.16
2022-10-22T03:11:51.468Z,98495.88
2022-10-22T03:14:23.111Z,98492.52
2022-10-22T03:16:55.274Z,98489.68
2022-10-22T03:19:28.863Z,98499.68
2022-10-22T03:22:06.668Z,98499.03
2022-10-22T03:24:42.236Z,98496.88
2022-10-22T03:27:16.119Z,98493.73
2022-10-22T03:29:47.981Z,98490.90
2022-10-22T03:32:19.683Z,98486.19
2022-10-22T03:34:51.203Z,98482.09
2022-10-22T03:37:24.333Z,98476.08
2022-10-22T03:39:56.688Z,98468.55
2022-10-22T03:42:28.834Z,98461.51
2022-10-22T03:45:00.206Z,98460.27
2022-10-22T03:47:31.657Z,98452.58
2022-10-22T03:50:03.235Z,98455.16
2022-10-22T03:52:39.850Z,98459.48
2022-10-22T03:55:13.134Z,98462.77
2022-10-22T03:57:44.620Z,98468.10
2022-10-22T04:00:17.425Z,98474.67
2022-10-22T04:02:48.900Z,98483.85
2022-10-22T04:05:20.402Z,98483.06
2022-10-22T04:07:51.818Z,98480.67
2022-10-22T04:10:23.284Z,98478.20
2022-10-22T04:12:54.804Z,98478.75
2022-10-22T04:15:29.390Z,98487.00
2022-10-22T04:18:00.842Z,98496.38
2022-10-22T04:20:32.236Z,98497.49
2022-10-22T04:23:03.739Z,98495.69
2022-10-22T04:25:35.210Z,98489.77
2022-10-22T04:28:10.063Z,98488.58
2022-10-22T04:30:41.588Z,98486.79
2022-10-22T04:33:13.133Z,98474.70
2022-10-22T04:35:44.648Z,98454.27
2022-10-22T04:38:16.635Z,98446.41
2022-10-22T04:40:48.103Z,98446.92
2022-10-22T04:43:19.564Z,98438.54
2022-10-22T04:45:51.020Z,98443.24
2022-10-22T04:48:22.628Z,98446.22
2022-10-22T04:50:54.006Z,98445.48
2022-10-22T04:53:25.463Z,98438.34
2022-10-22T04:55:56.966Z,98433.77
2022-10-22T04:58:28.371Z,98429.75
2022-10-22T05:01:00.857Z,98427.30
2022-10-22T05:03:32.369Z,98426.08
2022-10-22T05:06:04.899Z,98423.10
2022-10-22T05:08:36.561Z,98415.16
2022-10-22T05:11:15.651Z,98415.81
2022-10-22T05:13:48.139Z,98410.48
2022-10-22T05:16:19.584Z,98423.78
2022-10-22T05:18:51.016Z,98435.45
2022-10-22T05:21:23.793Z,98451.80
2022-10-22T05:23:56.329Z,98464.24
2022-10-22T05:26:29.636Z,98467.37
2022-10-22T05:29:01.089Z,98454.23
2022-10-22T05:31:32.704Z,98466.66
2022-10-22T05:34:04.429Z,98471.09
2022-10-22T05:36:35.952Z,98475.17
2022-10-22T05:39:08.137Z,98473.59
2022-10-22T05:41:39.754Z,98479.70
2022-10-22T05:44:14.180Z,98483.62
2022-10-22T05:46:46.892Z,98480.58
2022-10-22T05:49:19.207Z,98476.20
2022-10-22T05:51:50.748Z,98462.41
2022-10-22T05:54:23.236Z,98458.55
2022-10-22T05:56:56.296Z,98457.73
2022-10-22T05:59:27.808Z,98467.10
2022-10-22T06:01:59.231Z,98478.02
2022-10-22T06:04:30.671Z,98481.13
2022-10-22T06:07:03.063Z,98469.96
2022-10-22T06:09:40.853Z,98464.16
2022-10-22T06:12:13.831Z,98455.80
2022-10-22T06:14:45.312Z,98452.92
2022-10-22T06:17:19.722Z,98467.52
2022-10-22T06:19:51.118Z,98472.05
2022-10-22T06:22:22.526Z,98482.73
2022-10-22T06:24:54.467Z,98496.69
2022-10-22T06:27:25.964Z,98513.08
2022-10-22T06:29:57.401Z,98520.05
2022-10-22T06:32:28.778Z,98517.77
2022-10-22T06:35:00.165Z,98508.80
2022-10-22T06:37:31.676Z,98502.30
2022-10-22T06:40:03.065Z,98506.77
2022-10-22T06:42:34.662Z,98512.01
2022-10-22T06:45:08.020Z,98514.34
2022-10-22T06:47:40.213Z,98514.56
2022-10-22T06:50:12.999Z,98520.88
2022-10-22T06:52:44.604Z,98522.27
2022-10-22T06:55:16.146Z,98525.39
2022-10-22T06:57:47.550Z,98521.62
2022-10-22T07:00:19.822Z,98521.98
2022-10-22T07:02:57.696Z,98523.67
2022-10-22T07:05:30.807Z,98526.23
2022-10-22T07:08:02.306Z,98530.82
2022-10-22T07:10:33.747Z,98526.48
2022-10-22T07:13:05.301Z,98525.86
2022-10-22T07:15:36.695Z,98529.95
2022-10-22T07:18:08.337Z,98526.85
2022-10-22T07:20:41.194Z,98523.58
2022-10-22T07:23:12.642Z,98515.80
2022-10-22T07:25:44.764Z,98510.98
2022-10-22T07:28:16.268Z,98514.77
2022-10-22T07:30:48.069Z,98529.00
2022-10-22T07:33:19.542Z,98528.11
2022-10-22T07:35:51.060Z,98521.20
2022-10-22T07:38:22.489Z,98524.90
2022-10-22T07:40:53.954Z,98531.35
2022-10-22T07:43:25.504Z,98523.55
2022-10-22T07:45:56.918Z,98526.34
2022-10-22T07:48:28.546Z,98517.86
2022-10-22T07:51:00.565Z,98515.50
2022-10-22T07:53:32.249Z,98508.63
2022-10-22T07:56:04.547Z,98516.77
2022-10-22T07:58:36.710Z,98524.30
2022-10-22T08:01:08.539Z,98527.98
2022-10-22T08:03:40.337Z,98535.46
2022-10-22T08:06:14.337Z,98544.20
2022-10-22T08:08:46.745Z,98537.99
2022-10-22T08:11:18.455Z,98533.98
2022-10-22T08:13:49.839Z,98527.86
2022-10-22T08:16:21.473Z,98519.86
2022-10-22T08:18:53.344Z,98511.13
2022-10-22T08:21:25.099Z,98510.83
2022-10-22T08:23:56.700Z,98518.72
2022-10-22T08:26:28.893Z,98524.71
2022-10-22T08:29:00.392Z,98527.46
2022-10-22T08:31:32.000Z,98522.25
2022-10-22T08:34:05.686Z,98529.66
2022-10-22T08:36:37.143Z,98530.38
2022-10-22T08:39:08.619Z,98538.70
2022-10-22T08:41:53.796Z,98544.10
2022-10-22T08:44:50.123Z,98551.10
2022-10-22T08:47:38.989Z,98548.85
2022-10-22T08:50:17.895Z,98554.17
2022-10-22T08:52:58.211Z,98555.38
2022-10-22T08:55:36.515Z,98567.17
2022-10-22T08:58:21.119Z,98563.29
2022-10-22T09:01:00.903Z,98559.95
2022-10-22T09:03:46.687Z,98555.73
2022-10-22T09:06:23.067Z,98550.45
2022-10-22T09:08:58.147Z,98553.08
2022-10-22T09:11:34.476Z,98557.38
2022-10-22T09:14:08.019Z,98560.41
2022-10-22T09:16:54.959Z,98550.71
2022-10-22T09:19:35.795Z,98550.56
2022-10-22T09:22:23.733Z,98544.42
2022-10-22T09:24:59.959Z,98546.06
2022-10-22T09:27:32.653Z,98551.77
2022-10-22T09:30:04.680Z,98554.80
2022-10-22T09:32:36.134Z,98555.25
2022-10-22T09:35:13.378Z,98555.86
2022-10-22T09:37:52.551Z,98560.77
2022-10-22T09:40:24.635Z,98570.62
2022-10-22T09:42:56.044Z,98573.48
2022-10-22T09:45:29.198Z,98577.41
2022-10-22T09:48:13.939Z,98575.78
2022-10-22T09:50:48.190Z,98569.73
2022-10-22T09:53:23.501Z,98566.55
2022-10-22T09:55:57.756Z,98563.52
2022-10-22T09:58:30.102Z,98563.52
2022-10-22T10:01:04.530Z,98568.59
2022-10-22T10:03:35.923Z,98567.54
2022-10-22T10:06:08.366Z,98568.38
2022-10-22T10:08:40.066Z,98573.30
2022-10-22T10:11:20.258Z,98572.70
2022-10-22T10:13:59.447Z,98575.26
2022-10-22T10:16:44.460Z,98570.64
2022-10-22T10:19:38.928Z,98569.70
2022-10-22T10:22:25.499Z,98571.83
2022-10-22T10:25:29.032Z,98566.09
2022-10-22T10:28:13.430Z,98568.30
2022-10-22T10:30:53.422Z,98564.97
2022-10-22T10:33:35.165Z,98563.80
2022-10-22T10:36:18.003Z,98560.02
2022-10-22T10:39:13.918Z,98559.99
2022-10-22T10:41:57.566Z,98566.98
2022-10-22T10:44:42.117Z,98563.20
2022-10-22T10:47:46.875Z,98558.58
2022-10-22T10:50:26.926Z,98553.24
2022-10-22T10:53:12.348Z,98545.97
2022-10-22T10:55:55.015Z,98544.42
2022-10-22T10:58:35.830Z,98553.05
2022-10-22T11:01:21.128Z,98559.01
2022-10-22T11:04:08.504Z,98559.48
2022-10-22T11:06:40.953Z,98550.18
2022-10-22T11:09:25.893Z,98543.98
2022-10-22T11:12:01.912Z,98549.50
2022-10-22T11:14:41.337Z,98544.98
2022-10-22T11:17:17.072Z,98535.59
2022-10-22T11:19:59.897Z,98533.37
2022-10-22T11:22:42.168Z,98530.89
2022-10-22T11:25:23.293Z,98527.89
2022-10-22T11:28:04.668Z,98527.48
2022-10-22T11:30:41.977Z,98521.73
2022-10-22T11:33:19.406Z,98520.17
2022-10-22T11:42:20.452Z,98529.23
2022-10-22T11:45:02.575Z,98524.02
2022-10-22T11:47:36.553Z,98526.56
2022-10-22T11:50:25.985Z,98518.48
2022-10-22T11:53:05.271Z,98518.81
2022-10-22T11:55:52.517Z,98520.81
2022-10-22T11:58:33.269Z,98524.97
2022-10-22T12:01:26.288Z,98529.19
2022-10-22T12:04:21.407Z,98534.77
2022-10-22T12:06:59.259Z,98523.73
2022-10-22T12:09:34.398Z,98517.02
2022-10-22T12:12:15.375Z,98516.77
2022-10-22T12:14:59.364Z,98512.84
2022-10-22T12:17:32.369Z,98507.36
2022-10-22T12:20:08.849Z,98512.38
2022-10-22T12:22:41.312Z,98516.72
2022-10-22T12:25:22.145Z,98522.45
2022-10-22T12:27:57.197Z,98518.80
2022-10-22T12:30:31.487Z,98504.95
2022-10-22T12:33:06.480Z,98497.91
2022-10-22T12:35:52.010Z,98502.61
2022-10-22T12:38:25.628Z,98507.02
2022-10-22T12:40:59.222Z,98511.76
2022-10-22T12:43:33.527Z,98511.20
2022-10-22T12:46:05.365Z,98508.51
2022-10-22T12:48:41.529Z,98508.47
2022-10-22T12:51:20.229Z,98497.73
2022-10-22T12:53:55.176Z,98505.40
2022-10-22T12:56:30.037Z,98495.88
2022-10-22T12:59:05.132Z,98496.86
2022-10-22T13:01:39.910Z,98493.73
2022-10-22T13:04:23.245Z,98498.87
2022-10-22T13:07:08.164Z,98500.70
2022-10-22T13:09:44.993Z,98493.98
2022-10-22T13:12:25.528Z,98492.56
2022-10-22T13:14:56.998Z,98495.71
2022-10-22T13:17:44.037Z,98488.29
2022-10-22T13:20:22.393Z,98483.39
2022-10-22T13:23:00.433Z,98482.35
2022-10-22T13:25:33.594Z,98477.43
2022-10-22T13:28:19.666Z,98476.05
2022-10-22T13:30:57.914Z,98490.73
2022-10-22T13:33:33.461Z,98502.80
2022-10-22T13:36:06.429Z,98507.85
2022-10-22T13:38:38.019Z,98503.88
2022-10-22T13:41:22.477Z,98504.74
2022-10-22T13:43:55.241Z,98497.09
2022-10-22T13:46:29.432Z,98494.53
2022-10-22T13:49:01.564Z,98498.23
2022-10-22T13:51:36.761Z,98498.42
2022-10-22T13:54:16.329Z,98504.14
2022-10-22T13:56:48.271Z,98507.48
2022-10-22T13:59:22.863Z,98510.04
2022-10-22T14:01:57.230Z,98510.16
2022-10-22T14:04:28.760Z,98510.28
2022-10-22T14:07:02.870Z,98508.05
2022-10-22T14:09:35.782Z,98507.95
2022-10-22T14:12:14.140Z,98512.71
2022-10-22T14:14:45.714Z,98507.41
2022-10-22T14:17:19.460Z,98511.81
2022-10-22T14:19:51.975Z,98513.33
2022-10-22T14:22:26.171Z,98512.81
2022-10-22T14:24:57.721Z,98516.73
2022-10-22T14:27:29.264Z,98515.55
2022-10-22T14:30:00.698Z,98518.45
2022-10-22T14:32:33.567Z,98517.98
2022-10-22T14:35:05.348Z,98522.90
2022-10-22T14:37:36.893Z,98521.34
2022-10-22T14:40:13.446Z,98522.34
2022-10-22T14:42:47.570Z,98530.08
2022-10-22T14:45:23.140Z,98530.14
2022-10-22T14:47:56.039Z,98532.66
2022-10-22T14:50:28.004Z,98532.77
2022-10-22T14:53:00.688Z,98526.66
2022-10-22T14:55:32.604Z,98528.60
2022-10-22T14:58:04.202Z,98525.55
2022-10-22T15:00:36.909Z,98524.83
2022-10-22T15:03:08.660Z,98522.45
2022-10-22T15:05:44.857Z,98525.58
2022-10-22T15:08:17.719Z,98526.95
2022-10-22T15:10:57.935Z,98521.91
2022-10-22T15:13:30.134Z,98522.69
2022-10-22T15:16:03.052Z,98527.98
2022-10-22T15:18:34.687Z,98531.75
2022-10-22T15:21:09.125Z,98531.11
2022-10-22T15:23:41.242Z,98535.77
2022-10-22T15:26:14.075Z,98541.55
2022-10-22T15:28:45.811Z,98544.19
2022-10-22T15:31:38.368Z,98546.85
2022-10-22T15:34:09.913Z,98545.82
2022-10-22T15:36:41.469Z,98547.98
2022-10-22T15:39:13.504Z,98541.64
2022-10-22T15:41:45.043Z,98544.88
2022-10-22T15:44:21.654Z,98549.87
2022-10-22T15:46:54.881Z,98554.36
2022-10-22T15:49:29.193Z,98556.35
2022-10-22T15:52:00.723Z,98556.74
2022-10-22T15:54:33.010Z,98555.50
2022-10-22T15:57:08.687Z,98556.13
2022-10-22T15:59:42.993Z,98564.98
2022-10-22T16:02:15.983Z,98566.52
2022-10-22T16:04:48.154Z,98568.88
2022-10-22T16:07:22.538Z,98569.92
2022-10-22T16:10:00.324Z,98573.20
2022-10-22T16:12:32.754Z,98568.41
2022-10-22T16:15:04.721Z,98564.78
2022-10-22T16:17:36.471Z,98568.11
2022-10-22T16:20:10.188Z,98573.59
2022-10-22T16:22:40.441Z,98572.76
2022-10-22T16:25:12.780Z,98573.04
2022-10-22T16:27:44.317Z,98576.05
2022-10-22T16:30:16.576Z,98582.67
2022-10-22T16:32:48.162Z,98580.20
2022-10-22T16:35:19.826Z,98582.84
2022-10-22T16:37:51.474Z,98587.56
2022-10-22T16:40:23.755Z,98592.05
2022-10-22T16:42:55.606Z,98592.83
2022-10-22T16:45:27.283Z,98601.63
2022-10-22T16:47:58.930Z,98605.94
2022-10-22T16:50:30.783Z,98609.98
2022-10-22T16:53:02.451Z,98611.36
2022-10-22T16:55:38.922Z,98604.77
2022-10-22T16:58:10.684Z,98610.13
2022-10-22T17:00:42.458Z,98620.57
2022-10-22T17:03:14.909Z,98633.43
2022-10-22T17:05:47.601Z,98640.54
2022-10-22T17:08:20.387Z,98644.91
2022-10-22T17:10:52.153Z,98645.58
2022-10-22T17:13:23.803Z,98644.06
2022-10-22T17:16:01.811Z,98650.30
2022-10-22T17:18:35.545Z,98651.46
2022-10-22T17:21:09.402Z,98651.25
2022-10-22T17:23:39.543Z,98653.05
2022-10-22T17:26:17.629Z,98655.79
2022-10-22T17:28:50.746Z,98658.96
2022-10-22T17:31:24.844Z,98662.45
2022-10-22T17:34:00.226Z,98662.37
2022-10-22T17:36:35.652Z,98665.64
2022-10-22T17:39:09.356Z,98661.83
2022-10-22T17:41:40.760Z,98662.04
2022-10-22T17:44:16.814Z,98657.08
2022-10-22T17:46:49.735Z,98661.86
2022-10-22T17:49:22.540Z,98658.30
2022-10-22T17:51:54.129Z,98666.27
2022-10-22T17:54:25.677Z,98662.30
2022-10-22T17:56:57.197Z,98660.85
2022-10-22T17:59:28.751Z,98661.77
2022-10-22T18:02:02.295Z,98663.42
2022-10-22T18:04:35.342Z,98660.55
2022-10-22T18:07:06.868Z,98666.27
2022-10-22T18:09:40.139Z,98669.90
2022-10-22T18:12:13.708Z,98671.25
2022-10-22T18:14:46.404Z,98670.02
2022-10-22T18:17:17.895Z,98667.23
2022-10-22T18:19:50.731Z,98671.27
2022-10-22T18:22:22.227Z,98667.29
2022-10-22T18:24:53.733Z,98665.25
2022-10-22T18:27:25.368Z,98664.24
2022-10-22T18:29:56.865Z,98659.04
2022-10-22T18:32:28.362Z,98658.23
2022-10-22T18:34:59.861Z,98657.94
2022-10-22T18:37:31.961Z,98660.98
2022-10-22T18:40:03.430Z,98661.27
2022-10-22T18:42:39.755Z,98663.67
2022-10-22T18:45:13.007Z,98664.88
2022-10-22T18:47:44.819Z,98666.60
2022-10-22T18:50:16.488Z,98666.00
2022-10-22T18:52:47.992Z,98674.16
2022-10-22T18:55:19.577Z,98676.90
2022-10-22T18:57:51.094Z,98683.21
2022-10-22T19:00:22.809Z,98692.05
2022-10-22T19:02:54.927Z,98694.15
2022-10-22T19:05:26.471Z,98699.14
2022-10-22T19:07:57.947Z,98705.34
2022-10-22T19:10:29.340Z,98710.98
2022-10-22T19:13:00.724Z,98716.61
2022-10-22T19:15:32.458Z,98718.20
2022-10-22T19:18:04.055Z,98719.42
2022-10-22T19:20:35.837Z,98723.71
2022-10-22T19:23:08.321Z,98727.72
2022-10-22T19:25:40.107Z,98728.46
2022-10-22T19:28:11.554Z,98728.52
2022-10-22T19:30:44.718Z,98732.46
2022-10-22T19:33:16.134Z,98733.63
2022-10-22T19:35:47.734Z,98738.31
2022-10-22T19:38:19.257Z,98742.14
2022-10-22T19:40:51.347Z,98744.42
2022-10-22T19:43:23.779Z,98749.34
2022-10-22T19:45:55.196Z,98750.30
2022-10-22T19:48:28.697Z,98754.88
2022-10-22T19:51:04.958Z,98754.98
2022-10-22T19:53:37.923Z,98757.38
2022-10-22T19:56:12.152Z,98758.91
2022-10-22T19:58:43.688Z,98762.88
2022-10-22T20:01:17.563Z,98765.73
2022-10-22T20:03:50.778Z,98768.70
2022-10-22T20:06:22.982Z,98767.81
2022-10-22T20:08:56.144Z,98769.70
2022-10-22T20:11:30.156Z,98767.54
2022-10-22T20:14:02.297Z,98766.27
2022-10-22T20:16:36.360Z,98768.83
2022-10-22T20:19:11.117Z,98771.26
2022-10-22T20:21:43.309Z,98771.72
2022-10-22T20:24:15.250Z,98775.20
2022-10-22T20:26:49.070Z,98775.48
2022-10-22T20:29:20.637Z,98775.96
2022-10-22T20:31:52.323Z,98776.51
2022-10-22T20:34:23.695Z,98773.55
2022-10-22T20:36:55.250Z,98766.23
2022-10-22T20:39:26.809Z,98775.30
2022-10-22T20:41:58.364Z,98779.45
2022-10-22T20:44:30.362Z,98780.77
2022-10-22T20:47:01.795Z,98783.50
2022-10-22T20:49:33.890Z,98779.86
2022-10-22T20:52:05.413Z,98781.73
2022-10-22T20:54:41.386Z,98786.38
2022-10-22T20:57:14.316Z,98787.20
2022-10-22T20:59:46.341Z,98791.59
2022-10-22T21:02:18.309Z,98791.04
2022-10-22T21:04:49.710Z,98790.42
2022-10-22T21:07:21.106Z,98789.79
2022-10-22T21:09:52.553Z,98792.86
2022-10-22T21:12:24.095Z,98799.38
2022-10-22T21:14:55.627Z,98800.79
2022-10-22T21:17:27.117Z,98805.34
2022-10-22T21:19:58.735Z,98806.35
2022-10-22T21:22:30.340Z,98806.64
2022-10-22T21:25:01.735Z,98812.55
2022-10-22T21:27:33.207Z,98812.13
2022-10-22T21:30:05.514Z,98813.55
2022-10-22T21:32:36.960Z,98809.29
2022-10-22T21:35:09.592Z,98813.84
2022-10-22T21:37:41.210Z,98815.84
2022-10-22T21:40:14.903Z,98816.58
2022-10-22T21:42:46.544Z,98823.36
2022-10-22T21:45:22.109Z,98824.48
2022-10-22T21:47:54.092Z,98821.05
2022-10-22T21:50:25.524Z,98822.21
2022-10-22T21:52:56.954Z,98822.69
2022-10-22T21:55:30.428Z,98828.22
2022-10-22T21:58:01.867Z,98828.55
2022-10-22T22:00:33.465Z,98825.55
2022-10-22T22:03:07.882Z,98825.83
2022-10-22T22:05:39.827Z,98830.46
2022-10-22T22:08:11.263Z,98828.40
2022-10-22T22:10:43.439Z,98825.15
2022-10-22T22:13:17.833Z,98823.77
2022-10-22T22:15:49.213Z,98827.73
2022-10-22T22:18:21.520Z,98829.81
2022-10-22T22:20:52.961Z,98829.88
2022-10-22T22:23:24.428Z,98823.77
2022-10-22T22:25:59.096Z,98827.02
2022-10-22T22:28:32.217Z,98823.79
2022-10-22T22:31:13.026Z,98833.08
2022-10-22T22:33:45.008Z,98833.55
2022-10-22T22:36:16.574Z,98833.20
2022-10-22T22:38:48.119Z,98836.55
2022-10-22T22:41:19.521Z,98844.42
2022-10-22T22:43:51.023Z,98852.58
2022-10-22T22:46:22.521Z,98845.02
2022-10-22T22:48:53.935Z,98850.95
2022-10-22T22:51:25.673Z,98861.63
2022-10-22T22:53:57.811Z,98861.48
2022-10-22T22:56:31.481Z,98854.77
2022-10-22T22:59:01.528Z,98856.25
2022-10-22T23:01:35.329Z,98860.79
2022-10-22T23:04:13.512Z,98861.69
2022-10-22T23:06:45.228Z,98859.70
2022-10-22T23:11:55.350Z,98862.90
2022-10-22T23:14:26.756Z,98860.48
2022-10-22T23:16:58.134Z,98860.22
2022-10-22T23:19:29.584Z,98864.52
2022-10-22T23:22:00.963Z,98869.59
2022-10-22T23:24:32.566Z,98871.39
2022-10-22T23:27:05.565Z,98876.16
2022-10-22T23:29:37.448Z,98883.31
2022-10-22T23:32:15.217Z,98885.54
2022-10-22T23:34:46.585Z,98886.79
2022-10-22T23:37:18.036Z,98887.79
2022-10-22T23:39:49.485Z,98893.23
2022-10-22T23:42:20.899Z,98886.14
2022-10-22T23:44:52.337Z,98895.17
2022-10-22T23:47:23.871Z,98898.70
2022-10-22T23:49:55.237Z,98902.25
2022-10-22T23:52:27.983Z,98907.50
2022-10-22T23:54:59.409Z,98906.38
2022-10-22T23:57:30.811Z,98910.33
